Time;durP1;ratioP1;P1;durP2;ratioP2;P2;SDS_P1;SDS_P2;PMS_P1;PMS_P2;Temp;Humidity;BMP_temperature;BMP_pressure;BME280_temperature;BME280_humidity;BME280_pressure;Samples;Min_cycle;Max_cycle;Signal;HPM_P1;HPM_P2
2022/05/04 00:00:57;;;;;;;9.13;2.63;;;;;;;40.35;9.58;100608.59;5081831;28;20055;-61
2022/05/04 00:03:26;;;;;;;8.85;2.20;;;;;;;40.86;9.99;100605.97;5087735;28;20039;-61
2022/05/04 00:05:53;;;;;;;12.07;2.78;;;;;;;40.97;9.85;100605.47;5083758;28;20036;-60
2022/05/04 00:08:20;;;;;;;9.15;2.30;;;;;;;40.76;9.49;100602.31;5084653;28;20512;-61
2022/05/04 00:10:47;;;;;;;9.82;2.13;;;;;;;40.94;8.69;100601.53;5087256;28;20036;-59
2022/05/04 00:13:14;;;;;;;8.90;2.28;;;;;;;40.84;8.76;100602.00;5086276;28;20090;-61
2022/05/04 00:15:41;;;;;;;11.10;2.90;;;;;;;40.53;8.83;100594.41;5088076;28;20024;-61
2022/05/04 00:18:07;;;;;;;12.32;3.17;;;;;;;39.62;9.00;100589.28;5086552;28;20058;-60
2022/05/04 00:20:34;;;;;;;12.57;2.75;;;;;;;38.74;9.73;100587.81;5087561;28;20048;-61
2022/05/04 00:23:01;;;;;;;8.32;2.70;;;;;;;39.66;8.98;100592.78;5079002;28;20750;-61
2022/05/04 00:25:28;;;;;;;9.98;2.80;;;;;;;39.95;9.46;100589.53;5089705;28;20028;-61
2022/05/04 00:27:55;;;;;;;13.18;3.30;;;;;;;40.20;9.05;100585.66;5085473;28;20031;-61
2022/05/04 00:30:22;;;;;;;13.30;2.83;;;;;;;39.23;9.26;100585.16;5087781;28;20105;-60
2022/05/04 00:32:48;;;;;;;14.63;2.92;;;;;;;38.95;9.10;100578.47;5100831;28;20059;-61
2022/05/04 00:35:15;;;;;;;8.73;2.47;;;;;;;39.26;9.19;100589.91;5094094;28;20034;-60
2022/05/04 00:37:42;;;;;;;9.20;2.97;;;;;;;39.12;9.26;100590.44;5094234;28;20419;-59
2022/05/04 00:40:10;;;;;;;16.58;3.35;;;;;;;38.77;9.36;100586.88;5095285;28;20081;-61
2022/05/04 00:42:36;;;;;;;13.90;3.05;;;;;;;38.50;9.76;100584.59;5092907;28;20032;-60
2022/05/04 00:45:04;;;;;;;11.48;2.88;;;;;;;38.62;10.21;100590.22;5093706;28;20078;-59
2022/05/04 00:47:31;;;;;;;10.75;2.90;;;;;;;38.13;10.27;100577.78;5094215;28;20020;-60
2022/05/04 00:50:04;;;;;;;15.05;2.80;;;;;;;37.72;10.46;100586.03;5094253;28;20096;-60
2022/05/04 00:52:34;;;;;;;13.30;2.83;;;;;;;37.14;10.53;100588.19;5095271;28;20036;-60
2022/05/04 00:55:03;;;;;;;17.75;3.00;;;;;;;36.99;10.63;100592.72;5090750;28;20028;-60
2022/05/04 01:00:16;;;;;;;19.55;4.05;;;;;;;36.99;10.10;100587.06;5097230;28;20062;-60
2022/05/04 01:02:43;;;;;;;13.68;2.90;;;;;;;36.84;10.75;100586.66;5103441;28;20473;-60
2022/05/04 01:05:11;;;;;;;13.65;3.00;;;;;;;36.62;10.64;100581.56;5096785;28;20048;-60
2022/05/04 01:07:43;;;;;;;14.27;3.08;;;;;;;36.23;11.17;100582.59;5094055;28;20099;-60
2022/05/04 01:10:12;;;;;;;18.50;3.45;;;;;;;36.11;11.06;100583.34;5093937;28;20493;-60
2022/05/04 01:12:48;;;;;;;15.50;3.28;;;;;;;35.61;11.35;100580.94;5104955;28;20170;-59
2022/05/04 01:15:16;;;;;;;18.25;3.28;;;;;;;35.51;11.20;100584.78;5103649;28;20084;-60
2022/05/04 01:17:43;;;;;;;14.55;3.17;;;;;;;35.10;11.38;100581.22;5092705;28;20103;-59
2022/05/04 01:20:11;;;;;;;16.88;4.28;;;;;;;34.87;11.88;100577.72;5108897;28;20045;-60
2022/05/04 01:22:38;;;;;;;10.68;3.40;;;;;;;34.59;12.20;100581.84;5101549;28;20031;-59
2022/05/04 01:25:06;;;;;;;18.27;3.00;;;;;;;34.61;12.12;100585.03;5101176;28;20028;-61
2022/05/04 01:27:33;;;;;;;13.02;3.08;;;;;;;34.40;12.73;100584.22;5095612;28;20031;-62
2022/05/04 01:30:00;;;;;;;19.80;3.35;;;;;;;34.51;12.64;100590.47;5098691;28;20068;-60
2022/05/04 01:32:27;;;;;;;17.02;3.30;;;;;;;34.56;12.88;100585.56;5098728;28;20311;-60
2022/05/04 01:34:54;;;;;;;24.98;3.67;;;;;;;34.52;12.01;100592.06;5102673;28;20085;-59
2022/05/04 01:37:21;;;;;;;17.80;3.45;;;;;;;33.99;12.40;100580.91;5106433;28;20032;-60
2022/05/04 01:39:48;;;;;;;16.80;3.42;;;;;;;33.86;12.42;100587.16;5095660;28;20063;-60
2022/05/04 01:42:16;;;;;;;15.77;4.78;;;;;;;33.78;12.20;100580.03;5110759;28;20024;-60
2022/05/04 01:44:45;;;;;;;15.52;3.85;;;;;;;33.49;12.16;100588.09;5097751;28;20424;-60
2022/05/04 01:47:12;;;;;;;17.60;3.35;;;;;;;33.09;11.90;100592.66;5108568;28;20485;-58
2022/05/04 01:49:39;;;;;;;17.05;3.97;;;;;;;33.01;12.38;100591.13;5085744;28;20032;-60
2022/05/04 01:52:07;;;;;;;16.23;3.90;;;;;;;32.68;12.10;100587.91;5084731;28;20034;-60
2022/05/04 01:54:34;;;;;;;20.65;3.85;;;;;;;32.45;12.57;100601.78;5091309;28;20032;-60
2022/05/04 01:57:00;;;;;;;20.25;4.70;;;;;;;32.36;12.77;100590.25;5084570;28;20028;-60
2022/05/04 01:59:28;;;;;;;20.75;4.80;;;;;;;32.30;13.63;100594.72;5082916;28;20044;-60
2022/05/04 02:01:55;;;;;;;23.95;5.43;;;;;;;32.07;12.90;100596.09;5080152;28;20017;-60
2022/05/04 02:04:25;;;;;;;16.00;5.13;;;;;;;31.83;13.14;100597.91;5081642;28;20033;-60
2022/05/04 02:06:52;;;;;;;19.70;3.88;;;;;;;31.60;12.80;100606.06;5080214;28;20029;-59
2022/05/04 02:09:19;;;;;;;24.98;4.88;;;;;;;31.48;13.33;100609.34;5080489;28;20033;-59
2022/05/04 02:11:46;;;;;;;21.23;7.05;;;;;;;31.30;12.86;100609.44;5079353;28;20030;-59
2022/05/04 02:14:13;;;;;;;19.55;5.32;;;;;;;31.07;13.26;100606.31;5079519;28;20031;-60
2022/05/04 02:16:39;;;;;;;21.17;4.95;;;;;;;30.79;13.10;100612.84;5082639;28;20028;-59
2022/05/04 02:19:06;;;;;;;22.05;4.35;;;;;;;30.59;13.47;100606.84;5080518;28;20044;-60
2022/05/04 02:21:33;;;;;;;27.42;4.80;;;;;;;30.40;13.44;100598.88;5080859;28;20028;-59
2022/05/04 02:24:00;;;;;;;23.17;4.90;;;;;;;30.30;14.10;100598.47;5081963;28;20037;-59
2022/05/04 02:26:26;;;;;;;22.88;4.40;;;;;;;30.34;14.56;100604.88;5082771;28;20024;-59
2022/05/04 02:28:53;;;;;;;28.45;4.38;;;;;;;30.16;13.69;100598.47;5075590;28;20051;-59
2022/05/04 02:31:20;;;;;;;22.70;4.25;;;;;;;29.97;14.31;100608.06;5078304;28;20021;-59
2022/05/04 02:33:47;;;;;;;39.22;5.13;;;;;;;29.77;14.83;100610.44;5080272;28;20028;-59
2022/05/04 02:39:02;;;;;;;22.67;4.10;;;;;;;29.67;15.76;100607.63;5080874;28;20039;-60
2022/05/04 02:41:28;;;;;;;20.77;4.10;;;;;;;29.78;15.54;100612.03;5083033;28;20103;-60
2022/05/04 02:43:55;;;;;;;17.38;3.95;;;;;;;29.58;15.21;100608.00;5078901;28;20024;-59
2022/05/04 02:46:24;;;;;;;27.23;3.97;;;;;;;29.70;15.23;100612.44;5087154;28;20023;-60
2022/05/04 02:48:51;;;;;;;21.58;4.65;;;;;;;29.62;15.56;100614.41;5092985;28;20097;-61
2022/05/04 02:51:17;;;;;;;22.67;4.55;;;;;;;29.55;15.21;100614.41;5087374;28;20444;-60
2022/05/04 02:53:44;;;;;;;22.48;4.35;;;;;;;29.42;15.94;100622.34;5085985;28;20028;-61
2022/05/04 02:56:13;;;;;;;23.98;4.22;;;;;;;29.46;16.66;100626.00;5088743;28;20070;-60
2022/05/04 02:58:40;;;;;;;26.83;4.97;;;;;;;29.40;15.93;100623.94;5080498;28;20058;-57
2022/05/04 03:02:26;;;;;;;29.02;4.78;;;;;;;28.99;17.23;100629.78;5077364;28;20069;-58
2022/05/04 03:03:54;;;;;;;35.92;5.10;;;;;;;29.14;16.73;100627.84;5077820;28;20089;-60
2022/05/04 03:06:21;;;;;;;35.17;5.43;;;;;;;28.92;17.04;100635.34;5080764;28;20076;-59
2022/05/04 03:08:48;;;;;;;31.10;5.55;;;;;;;28.85;16.46;100629.66;5075433;28;20036;-59
2022/05/04 03:13:59;;;;;;;26.65;5.40;;;;;;;28.51;17.33;100648.63;5078934;28;20368;-59
2022/05/04 03:16:26;;;;;;;41.50;6.20;;;;;;;28.47;16.68;100645.81;5084849;28;20029;-60
2022/05/04 03:18:53;;;;;;;41.22;6.05;;;;;;;28.34;17.31;100655.69;5081684;28;20051;-61
2022/05/04 03:21:20;;;;;;;52.75;7.13;;;;;;;28.25;17.16;100655.19;5086327;28;20036;-60
2022/05/04 03:23:47;;;;;;;42.67;7.10;;;;;;;28.22;16.33;100647.59;5081530;28;20037;-60
2022/05/04 03:26:13;;;;;;;44.95;7.90;;;;;;;27.96;17.13;100660.50;5077003;28;20017;-61
2022/05/04 03:28:40;;;;;;;56.85;7.82;;;;;;;27.84;17.62;100662.81;5079336;28;20113;-60
2022/05/04 03:31:07;;;;;;;50.25;7.85;;;;;;;27.65;16.71;100669.38;5076706;28;20306;-60
2022/05/04 03:33:34;;;;;;;57.58;7.32;;;;;;;27.68;17.89;100668.63;5080626;28;20032;-60
2022/05/04 03:36:00;;;;;;;59.38;7.60;;;;;;;27.76;17.76;100675.06;5081263;28;20032;-59
2022/05/04 03:38:27;;;;;;;43.88;7.45;;;;;;;27.64;17.27;100673.34;5089303;28;20480;-60
2022/05/04 03:40:54;;;;;;;47.92;7.80;;;;;;;27.36;17.31;100674.59;5082896;28;20689;-60
2022/05/04 03:43:21;;;;;;;50.90;7.10;;;;;;;27.31;16.52;100677.72;5080398;28;20036;-60
2022/05/04 03:45:47;;;;;;;51.42;6.95;;;;;;;27.30;17.36;100678.91;5077151;28;20024;-58
2022/05/04 03:48:14;;;;;;;51.65;7.88;;;;;;;27.16;17.15;100684.31;5081522;28;20033;-61
2022/05/04 03:50:41;;;;;;;56.97;7.65;;;;;;;27.22;17.10;100673.59;5086388;28;20032;-60
2022/05/04 03:53:07;;;;;;;88.03;9.05;;;;;;;26.89;18.11;100685.47;5080997;28;20032;-61
2022/05/04 03:55:34;;;;;;;57.95;7.85;;;;;;;27.17;18.78;100691.47;5080339;28;20540;-61
2022/05/04 03:58:01;;;;;;;55.97;7.82;;;;;;;27.05;18.83;100680.53;5078811;28;20031;-59
2022/05/04 04:00:28;;;;;;;54.67;8.05;;;;;;;27.39;19.09;100693.38;5083057;28;20043;-59
2022/05/04 04:02:54;;;;;;;56.60;8.73;;;;;;;27.24;19.38;100687.97;5090854;28;20486;-58
2022/05/04 04:05:23;;;;;;;56.92;8.25;;;;;;;27.30;18.64;100692.88;5084641;28;20043;-60
2022/05/04 04:07:50;;;;;;;39.65;7.53;;;;;;;26.94;18.85;100696.31;5089339;28;20093;-59
2022/05/04 04:10:16;;;;;;;48.53;8.50;;;;;;;26.73;19.88;100702.34;5080277;28;20028;-59
2022/05/04 04:12:43;;;;;;;79.05;9.15;;;;;;;26.75;19.94;100705.56;5082379;28;20093;-58
2022/05/04 04:15:10;;;;;;;54.78;9.63;;;;;;;26.49;18.89;100707.16;5080158;28;20141;-58
2022/05/04 04:17:38;;;;;;;50.95;8.77;;;;;;;26.29;18.83;100710.38;5081320;28;20509;-59
2022/05/04 04:22:50;;;;;;;62.97;9.32;;;;;;;26.15;19.02;100711.72;5087507;28;20421;-58
2022/05/04 04:25:17;;;;;;;67.38;10.27;;;;;;;25.92;19.20;100705.34;5084318;28;20032;-60
2022/05/04 04:27:44;;;;;;;54.67;8.52;;;;;;;26.15;19.15;100722.06;5077342;28;20032;-60
2022/05/04 04:30:12;;;;;;;62.83;9.13;;;;;;;25.86;19.80;100723.53;5077019;28;20115;-59
2022/05/04 04:32:39;;;;;;;58.15;8.82;;;;;;;26.12;19.93;100715.25;5080274;28;20032;-61
2022/05/04 04:35:06;;;;;;;63.20;9.93;;;;;;;26.15;19.98;100728.44;5078239;28;20064;-60
2022/05/04 04:37:34;;;;;;;57.83;9.80;;;;;;;25.79;20.61;100728.94;5088660;28;20115;-59
2022/05/04 04:40:00;;;;;;;62.60;10.95;;;;;;;25.93;20.82;100725.63;5083690;28;20063;-60
2022/05/04 04:42:29;;;;;;;74.20;14.35;;;;;;;25.99;20.40;100735.28;5086484;28;20110;-60
2022/05/04 04:44:55;;;;;;;58.47;10.88;;;;;;;25.79;20.78;100742.84;5084928;28;20414;-59
2022/05/04 04:47:22;;;;;;;101.15;13.55;;;;;;;26.14;20.97;100751.91;5089554;28;20039;-59
2022/05/04 04:49:49;;;;;;;100.47;17.88;;;;;;;25.99;22.51;100761.16;5090541;28;20032;-59
2022/05/04 04:52:16;;;;;;;102.80;14.43;;;;;;;25.86;25.01;100757.75;5096939;28;21754;-61
2022/05/04 04:54:44;;;;;;;95.57;13.63;;;;;;;25.74;27.37;100760.66;5101727;28;20060;-59
2022/05/04 04:57:10;;;;;;;76.07;10.43;;;;;;;25.66;30.19;100775.56;5095999;28;20028;-60
2022/05/04 04:59:37;;;;;;;55.03;8.98;;;;;;;25.44;31.63;100767.94;5091096;28;20539;-61
2022/05/04 05:02:04;;;;;;;49.90;8.15;;;;;;;25.46;32.25;100776.72;5087710;28;20024;-61
2022/05/04 05:04:31;;;;;;;35.72;7.22;;;;;;;25.52;32.76;100776.09;5089930;28;20032;-61
2022/05/04 05:06:58;;;;;;;32.00;6.63;;;;;;;25.46;35.24;100788.66;5092155;28;20038;-61
2022/05/04 05:09:24;;;;;;;23.80;5.40;;;;;;;25.33;36.41;100791.94;5101222;28;20036;-58
2022/05/04 05:11:51;;;;;;;23.15;4.38;;;;;;;25.32;37.76;100793.94;5108172;28;20035;-59
2022/05/04 05:17:04;;;;;;;13.90;4.20;;;;;;;24.91;40.71;100810.00;5086398;28;20040;-61
2022/05/04 05:19:32;;;;;;;20.17;4.57;;;;;;;24.80;41.07;100805.34;5071103;28;20458;-60
2022/05/04 05:21:59;;;;;;;13.02;4.32;;;;;;;24.71;41.25;100809.09;5072323;28;20119;-59
2022/05/04 05:24:26;;;;;;;17.15;4.97;;;;;;;24.65;41.55;100804.19;5071269;28;20055;-59
2022/05/04 05:26:53;;;;;;;10.63;3.72;;;;;;;24.57;41.67;100813.47;5087793;28;20440;-59
2022/05/04 05:29:19;;;;;;;13.75;4.20;;;;;;;24.58;41.31;100813.13;5089688;28;20047;-61
2022/05/04 05:31:47;;;;;;;21.30;4.22;;;;;;;24.79;40.56;100810.09;5090658;28;20089;-59
2022/05/04 05:34:13;;;;;;;19.90;4.50;;;;;;;24.82;40.26;100820.50;5087997;28;20064;-59
2022/05/04 05:36:40;;;;;;;20.70;4.32;;;;;;;24.77;40.05;100817.16;5079357;28;20512;-60
2022/05/04 05:39:07;;;;;;;17.13;4.55;;;;;;;24.55;41.50;100822.19;5090493;28;20385;-59
2022/05/04 05:41:34;;;;;;;17.65;4.13;;;;;;;24.37;41.91;100818.94;5091194;28;20040;-59
2022/05/04 05:44:01;;;;;;;16.25;4.07;;;;;;;24.25;42.14;100820.94;5074702;28;20054;-59
2022/05/04 05:46:29;;;;;;;15.50;3.95;;;;;;;24.17;42.14;100822.69;5071968;28;20041;-59
2022/05/04 05:48:56;;;;;;;19.33;4.35;;;;;;;24.16;41.71;100809.19;5074985;28;20017;-61
2022/05/04 05:51:22;;;;;;;16.13;3.85;;;;;;;24.37;41.72;100813.38;5092272;28;20032;-60
2022/05/04 05:53:49;;;;;;;19.67;4.20;;;;;;;24.24;42.02;100811.00;5081310;28;20020;-60
2022/05/04 05:56:16;;;;;;;18.85;4.53;;;;;;;24.24;41.35;100817.38;5091355;28;20035;-60
2022/05/04 05:58:43;;;;;;;18.27;4.57;;;;;;;24.20;42.30;100823.97;5103967;28;20531;-62
2022/05/04 06:01:10;;;;;;;15.40;4.22;;;;;;;24.39;40.99;100818.56;5088809;28;20036;-59
2022/05/04 06:03:36;;;;;;;16.35;4.20;;;;;;;24.54;40.38;100819.75;5108850;28;20132;-61
2022/05/04 06:06:03;;;;;;;21.25;4.63;;;;;;;24.60;40.24;100815.56;5095616;28;20115;-61
2022/05/04 06:08:30;;;;;;;14.75;4.05;;;;;;;24.38;40.85;100825.28;5090825;28;20036;-61
2022/05/04 06:10:57;;;;;;;15.95;4.15;;;;;;;23.94;42.32;100824.44;5091824;28;20032;-60
2022/05/04 06:13:24;;;;;;;19.58;4.75;;;;;;;23.87;42.58;100835.31;5095064;28;20064;-61
2022/05/04 06:15:51;;;;;;;22.33;4.53;;;;;;;23.83;42.68;100837.97;5102552;28;20432;-60
2022/05/04 06:18:17;;;;;;;21.85;4.35;;;;;;;23.65;42.93;100833.88;5102639;28;20058;-59
2022/05/04 06:20:44;;;;;;;26.02;4.38;;;;;;;23.78;42.28;100833.50;5096197;28;20040;-61
2022/05/04 06:23:11;;;;;;;22.48;5.03;;;;;;;23.88;42.28;100839.69;5098481;28;20064;-61
2022/05/04 06:25:38;;;;;;;21.73;5.38;;;;;;;24.01;42.22;100844.06;5097044;28;20032;-60
2022/05/04 06:28:05;;;;;;;20.92;5.28;;;;;;;23.82;42.28;100850.25;5107851;28;20101;-58
2022/05/04 06:36:02;;;;;;;19.52;4.97;;;;;;;23.85;42.91;100843.19;5106667;28;20042;-59
2022/05/04 06:38:29;;;;;;;19.45;4.95;;;;;;;23.71;42.99;100838.03;5106926;28;20027;-60
2022/05/04 06:40:55;;;;;;;22.90;5.55;;;;;;;23.56;43.82;100841.50;5094214;28;20480;-59
2022/05/04 06:43:23;;;;;;;24.45;5.65;;;;;;;23.24;44.42;100846.03;5111088;28;20047;-60
2022/05/04 06:45:50;;;;;;;17.75;5.38;;;;;;;23.20;45.01;100846.72;5095979;28;20035;-59
2022/05/04 06:48:17;;;;;;;31.73;5.95;;;;;;;23.11;45.27;100843.25;5102720;28;20490;-59
2022/05/04 06:50:44;;;;;;;26.25;5.60;;;;;;;23.17;45.97;100849.41;5099088;27;20334;-59
2022/05/04 06:53:10;;;;;;;20.63;5.80;;;;;;;22.93;46.49;100836.31;5111886;28;20034;-60
2022/05/04 06:55:38;;;;;;;21.00;6.25;;;;;;;22.94;47.23;100850.97;5104889;28;20031;-60
2022/05/04 06:58:05;;;;;;;22.40;6.03;;;;;;;23.08;46.37;100843.94;5096404;28;20039;-58
2022/05/04 07:00:32;;;;;;;22.92;6.95;;;;;;;22.89;49.20;100852.84;5104023;28;20492;-60
2022/05/04 07:02:59;;;;;;;32.38;7.22;;;;;;;22.60;50.81;100853.78;5103612;28;20031;-59
2022/05/04 07:05:26;;;;;;;21.92;7.00;;;;;;;22.94;50.22;100857.34;5090981;28;20024;-60
2022/05/04 07:07:53;;;;;;;24.08;6.72;;;;;;;22.96;49.01;100862.53;5100695;28;20051;-60
2022/05/04 07:10:20;;;;;;;21.95;7.05;;;;;;;23.02;48.40;100855.63;5112563;28;20085;-60
2022/05/04 07:12:47;;;;;;;27.05;7.75;;;;;;;23.11;48.28;100854.34;5096583;28;20040;-60
2022/05/04 07:15:14;;;;;;;26.25;7.68;;;;;;;22.69;51.35;100859.25;5108017;28;20024;-60
2022/05/04 07:17:41;;;;;;;19.95;7.45;;;;;;;22.21;53.10;100859.88;5104299;28;20059;-61
2022/05/04 07:20:09;;;;;;;23.00;7.18;;;;;;;22.44;51.52;100857.53;5097661;28;20048;-61
2022/05/04 07:22:36;;;;;;;20.02;7.40;;;;;;;22.66;51.69;100859.13;5109738;28;20035;-58
2022/05/04 07:25:04;;;;;;;21.67;7.40;;;;;;;22.74;50.36;100860.97;5108805;28;20020;-60
2022/05/04 07:27:30;;;;;;;20.50;6.90;;;;;;;22.80;50.07;100859.59;5105250;28;20436;-58
2022/05/04 07:29:57;;;;;;;22.17;6.72;;;;;;;22.81;49.99;100862.03;5107695;28;20043;-59
2022/05/04 07:32:24;;;;;;;22.05;7.32;;;;;;;22.67;50.78;100860.75;5098695;28;20051;-59
2022/05/04 07:34:51;;;;;;;24.90;7.57;;;;;;;22.81;49.78;100866.78;5111457;28;20034;-59
2022/05/04 07:37:17;;;;;;;20.67;8.10;;;;;;;22.58;51.19;100869.13;5101894;28;20020;-58
2022/05/04 07:42:29;;;;;;;24.25;9.13;;;;;;;22.56;51.40;100866.69;5111732;28;20112;-58
2022/05/04 07:45:04;;;;;;;23.95;8.73;;;;;;;22.40;51.42;100874.03;5092934;27;20386;-58
2022/05/04 07:47:34;;;;;;;26.10;8.38;;;;;;;22.28;51.90;100860.97;5101296;28;20459;-58
2022/05/04 07:50:03;;;;;;;24.80;8.45;;;;;;;22.36;52.54;100862.03;5101303;28;20214;-58
2022/05/04 07:52:30;;;;;;;26.30;8.35;;;;;;;21.84;54.85;100867.16;5087604;28;20032;-58
2022/05/04 07:54:57;;;;;;;26.52;8.30;;;;;;;21.61;54.79;100874.97;5114585;28;20495;-58
2022/05/04 07:57:24;;;;;;;29.27;8.27;;;;;;;21.88;54.51;100873.63;5106727;28;20038;-58
2022/05/04 08:05:24;;;;;;;24.13;7.57;;;;;;;21.69;55.25;100863.03;5106807;28;20103;-59
2022/05/04 08:07:51;;;;;;;18.80;7.07;;;;;;;21.80;55.04;100863.47;5105836;28;20023;-59
2022/05/04 08:10:18;;;;;;;22.38;7.32;;;;;;;21.84;55.04;100873.50;5097984;28;20083;-59
2022/05/04 08:12:45;;;;;;;22.33;7.15;;;;;;;21.61;56.99;100870.25;5093396;28;20024;-59
2022/05/04 08:15:12;;;;;;;30.63;9.13;;;;;;;21.28;57.80;100859.06;5110839;28;20035;-59
2022/05/04 08:17:39;;;;;;;20.75;8.23;;;;;;;21.24;57.70;100860.88;5100473;28;20020;-59
2022/05/04 08:20:06;;;;;;;26.13;10.77;;;;;;;21.21;57.80;100861.53;5093678;27;20547;-58
2022/05/04 08:22:33;;;;;;;28.30;10.40;;;;;;;21.47;56.31;100866.13;5092373;28;20116;-59
2022/05/04 08:25:00;;;;;;;28.45;10.73;;;;;;;21.50;57.07;100873.75;5111231;28;20026;-59
2022/05/04 08:27:28;;;;;;;27.83;10.13;;;;;;;21.37;57.64;100870.91;5109701;28;20085;-59
2022/05/04 08:29:55;;;;;;;23.08;10.45;;;;;;;21.63;56.04;100867.97;5094050;28;20028;-59
2022/05/04 08:32:21;;;;;;;21.23;9.10;;;;;;;21.78;56.03;100863.78;5106390;28;20032;-59
2022/05/04 08:34:48;;;;;;;27.73;9.93;;;;;;;21.64;56.72;100864.06;5097801;28;20111;-59
2022/05/04 08:37:15;;;;;;;27.20;9.43;;;;;;;21.13;57.85;100867.88;5110502;28;20044;-58
2022/05/04 08:39:42;;;;;;;33.97;10.25;;;;;;;21.32;56.95;100868.31;5100257;28;20043;-59
2022/05/04 08:42:09;;;;;;;22.92;9.75;;;;;;;21.35;56.95;100862.09;5102741;28;20081;-58
2022/05/04 08:44:40;;;;;;;47.80;10.43;;;;;;;21.35;57.91;100870.41;5090517;27;20032;-60
2022/05/04 08:47:14;;;;;;;35.03;9.68;;;;;;;21.26;59.22;100864.13;5093616;28;20092;-59
2022/05/04 08:49:42;;;;;;;23.27;8.90;;;;;;;21.52;57.48;100872.25;5103358;28;20035;-58
2022/05/04 08:52:11;;;;;;;24.52;9.57;;;;;;;21.53;57.96;100870.28;5102400;28;20028;-59
2022/05/04 08:54:38;;;;;;;25.83;8.88;;;;;;;21.49;58.50;100872.94;5092235;28;20092;-59
2022/05/04 08:57:05;;;;;;;28.45;9.02;;;;;;;21.46;59.73;100872.78;5090189;28;20020;-59
2022/05/04 08:59:32;;;;;;;27.42;9.43;;;;;;;21.34;59.02;100876.25;5093425;28;20084;-60
2022/05/04 09:01:58;;;;;;;26.25;9.07;;;;;;;21.26;59.88;100869.66;5092336;28;20051;-60
2022/05/04 09:04:25;;;;;;;25.52;8.90;;;;;;;21.32;59.51;100873.84;5092068;28;20103;-59
2022/05/04 09:06:52;;;;;;;32.63;9.60;;;;;;;21.31;59.23;100872.22;5093327;28;20032;-59
2022/05/04 09:09:19;;;;;;;29.42;9.23;;;;;;;21.25;59.49;100878.28;5092965;28;20044;-59
2022/05/04 09:11:46;;;;;;;25.08;10.23;;;;;;;21.40;58.87;100897.88;5093325;28;20111;-58
2022/05/04 09:14:20;;;;;;;30.92;10.18;;;;;;;21.09;60.63;100905.63;5093200;28;20039;-59
2022/05/04 09:16:48;;;;;;;31.20;10.27;;;;;;;21.03;60.97;100887.63;5092990;28;20122;-59
2022/05/04 09:19:17;;;;;;;26.27;9.55;;;;;;;20.83;61.46;100893.88;5093060;28;20562;-58
2022/05/04 09:21:47;;;;;;;31.08;9.90;;;;;;;20.99;60.98;100903.22;5093334;28;20491;-58
2022/05/04 09:24:32;;;;;;;27.13;10.30;;;;;;;20.73;62.01;100895.81;5095462;28;20040;-59
2022/05/04 09:26:59;;;;;;;28.83;10.65;;;;;;;20.63;62.39;100892.59;5113451;28;20038;-59
2022/05/04 09:29:37;;;;;;;25.00;9.18;;;;;;;20.42;62.86;100903.50;5113407;28;20385;-59
2022/05/04 09:32:16;;;;;;;29.23;9.82;;;;;;;20.55;63.25;100905.28;5113691;28;20039;-59
2022/05/04 09:34:44;;;;;;;25.38;9.15;;;;;;;20.76;62.30;100906.22;5113402;28;20028;-59
2022/05/04 09:45:39;;;;;;;26.55;9.05;;;;;;;20.69;62.74;100918.91;5092810;28;20043;-59
2022/05/04 09:48:06;;;;;;;30.15;8.85;;;;;;;20.31;64.00;100921.53;5092932;28;20497;-59
2022/05/04 09:50:40;;;;;;;27.45;8.10;;;;;;;20.52;62.83;100922.50;5092873;28;20036;-58
2022/05/04 09:53:07;;;;;;;25.05;8.18;;;;;;;20.46;63.82;100926.56;5092939;28;20040;-58
2022/05/04 09:55:35;;;;;;;31.48;8.65;;;;;;;20.36;64.52;100924.09;5105134;28;20023;-58
2022/05/04 09:58:03;;;;;;;28.50;7.85;;;;;;;20.36;63.84;100929.63;5113152;28;20070;-59
2022/05/04 10:00:30;;;;;;;29.25;7.85;;;;;;;20.47;63.61;100930.97;5112881;28;20566;-58
2022/05/04 10:02:57;;;;;;;30.48;8.15;;;;;;;20.59;62.86;100931.09;5116270;28;20553;-59
2022/05/04 10:05:24;;;;;;;22.27;7.72;;;;;;;20.45;63.56;100939.53;5116331;28;20031;-59
2022/05/04 10:07:52;;;;;;;23.98;7.72;;;;;;;20.41;64.46;100932.25;5115203;27;20061;-59
2022/05/04 10:10:21;;;;;;;22.58;7.90;;;;;;;20.40;63.53;100939.69;5114894;28;20122;-58
2022/05/04 10:12:49;;;;;;;24.08;7.82;;;;;;;20.31;64.83;100943.59;5114951;28;20520;-58
2022/05/04 10:15:18;;;;;;;30.13;8.55;;;;;;;20.23;65.23;100946.03;5115149;28;20181;-58
2022/05/04 10:18:05;;;;;;;24.20;7.57;;;;;;;20.25;64.43;100944.88;5115229;28;20054;-59
2022/05/04 10:20:37;;;;;;;26.45;8.13;;;;;;;20.09;65.46;100948.13;5115762;28;20117;-59
2022/05/04 10:23:19;;;;;;;27.50;8.13;;;;;;;20.06;64.67;100942.44;5117038;28;20042;-59
2022/05/04 10:25:46;;;;;;;25.70;8.25;;;;;;;19.99;65.33;100937.41;5104085;28;20044;-58
2022/05/04 10:28:15;;;;;;;30.90;9.25;;;;;;;19.70;66.40;100940.75;5096461;28;20024;-59
2022/05/04 10:30:56;;;;;;;29.35;8.75;;;;;;;20.04;65.38;100951.03;5096174;28;20550;-59
2022/05/04 10:33:44;;;;;;;32.92;9.75;;;;;;;20.20;64.14;100954.94;5096429;28;20071;-57
2022/05/04 10:36:18;;;;;;;26.05;9.30;;;;;;;19.84;66.97;100954.41;5096200;28;20378;-59
2022/05/04 10:38:51;;;;;;;25.98;9.27;;;;;;;19.70;66.77;100959.25;5096211;28;20401;-58
2022/05/04 10:41:34;;;;;;;24.90;9.45;;;;;;;19.33;69.88;100955.84;5096205;28;20065;-58
2022/05/04 10:44:01;;;;;;;32.40;9.43;;;;;;;19.13;69.90;100962.72;5096101;28;20025;-59
2022/05/04 10:46:30;;;;;;;26.33;9.70;;;;;;;19.17;69.93;100960.13;5095983;28;20450;-57
2022/05/04 10:49:02;;;;;;;28.65;9.68;;;;;;;19.06;69.92;100958.81;5096156;28;20119;-58
2022/05/04 10:51:31;;;;;;;36.95;9.70;;;;;;;19.24;69.24;100961.31;5096092;28;20066;-59
2022/05/04 10:54:08;;;;;;;32.85;9.30;;;;;;;19.30;69.25;100970.25;5095937;28;20039;-59
2022/05/04 10:56:37;;;;;;;29.75;10.05;;;;;;;19.20;69.34;100962.25;5115123;28;20035;-58
2022/05/04 10:59:04;;;;;;;29.67;9.85;;;;;;;19.27;68.40;100962.63;5116213;27;20031;-59
2022/05/04 11:01:34;;;;;;;27.95;9.48;;;;;;;19.37;68.22;100962.34;5116298;28;20039;-58
2022/05/04 11:04:06;;;;;;;26.98;9.85;;;;;;;19.69;66.02;100966.69;5116102;28;20063;-59
2022/05/04 11:06:37;;;;;;;22.95;9.35;;;;;;;19.60;67.13;100968.63;5115695;28;20061;-58
2022/05/04 11:09:10;;;;;;;28.42;9.93;;;;;;;19.55;66.98;100966.81;5115345;28;20070;-59
2022/05/04 11:11:39;;;;;;;24.40;8.98;;;;;;;19.39;67.70;100964.75;5116012;28;20548;-58
2022/05/04 11:14:08;;;;;;;27.35;9.82;;;;;;;19.38;67.58;100958.44;5115645;28;20032;-58
2022/05/04 11:16:35;;;;;;;25.73;9.93;;;;;;;19.24;67.98;100949.50;5115957;28;20056;-57
2022/05/04 11:19:04;;;;;;;26.75;9.05;;;;;;;19.06;68.69;100958.81;5115645;28;20420;-58
2022/05/04 11:21:32;;;;;;;30.42;10.23;;;;;;;18.94;68.95;100957.44;5116028;28;20080;-57
2022/05/04 11:24:02;;;;;;;34.20;10.20;;;;;;;19.04;68.53;100955.56;5115599;28;20111;-58
2022/05/04 11:26:49;;;;;;;29.77;10.23;;;;;;;19.13;68.36;100967.41;5096976;28;20106;-58
2022/05/04 11:29:17;;;;;;;27.88;10.32;;;;;;;18.81;70.33;100963.00;5095141;28;20123;-58
2022/05/04 11:31:55;;;;;;;38.17;12.13;;;;;;;18.79;70.43;100974.34;5095329;28;20107;-57
2022/05/04 11:34:22;;;;;;;31.63;11.98;;;;;;;18.76;70.76;100969.47;5095044;28;20085;-58
2022/05/04 11:36:51;;;;;;;37.17;13.90;;;;;;;18.80;71.16;100973.19;5095102;28;20028;-57
2022/05/04 11:39:23;;;;;;;35.03;12.88;;;;;;;18.75;71.00;100976.09;5093735;28;20097;-59
2022/05/04 11:41:52;;;;;;;35.08;13.18;;;;;;;18.66;70.74;100978.78;5095034;28;20086;-57
2022/05/04 11:44:22;;;;;;;38.08;14.07;;;;;;;18.69;71.88;100982.88;5095162;28;20031;-59
2022/05/04 11:46:53;;;;;;;30.02;12.60;;;;;;;18.73;70.95;100975.59;5095084;28;20032;-57
2022/05/04 11:49:22;;;;;;;33.55;13.13;;;;;;;18.61;71.95;100986.31;5093661;28;20031;-57
2022/05/04 11:51:50;;;;;;;28.35;12.80;;;;;;;18.64;70.75;100989.28;5094840;28;20102;-57
2022/05/04 11:54:17;;;;;;;36.38;13.38;;;;;;;18.86;69.92;100999.50;5094841;28;20036;-59
2022/05/04 11:56:44;;;;;;;26.27;12.35;;;;;;;18.91;69.14;100995.81;5115305;28;20029;-57